createdAt,value
2023-03-06T00:00:01.347Z,84.79
2023-03-06T00:03:05.499Z,84.77
2023-03-06T00:06:09.292Z,85.37
2023-03-06T00:09:12.833Z,85.17
2023-03-06T00:12:17.725Z,85.15
2023-03-06T00:15:22.087Z,85.08
2023-03-06T00:18:25.649Z,85.39
2023-03-06T00:21:29.161Z,85.26
2023-03-06T00:24:33.104Z,84.89
2023-03-06T00:27:38.724Z,85.38
2023-03-06T00:30:42.235Z,85.13
2023-03-06T00:33:45.761Z,84.89
2023-03-06T00:36:49.182Z,84.19
2023-03-06T00:39:52.952Z,84.44
2023-03-06T00:43:08.290Z,83.55
2023-03-06T00:46:12.357Z,83.23
2023-03-06T00:49:16.438Z,83.54
2023-03-06T00:52:20.281Z,83.10
2023-03-06T00:55:23.755Z,82.69
2023-03-06T00:58:28.777Z,82.46
2023-03-06T01:01:33.376Z,82.00
2023-03-06T01:04:37.696Z,82.52
2023-03-06T01:07:43.182Z,82.13
2023-03-06T01:10:53.078Z,83.04
2023-03-06T01:13:58.100Z,83.04
2023-03-06T01:17:01.492Z,83.42
2023-03-06T01:20:06.053Z,84.01
2023-03-06T01:23:10.289Z,83.82
2023-03-06T01:29:18.747Z,84.43
2023-03-06T01:32:24.745Z,84.40
2023-03-06T01:35:28.557Z,84.72
2023-03-06T01:38:32.425Z,84.54
2023-03-06T01:41:36.112Z,85.17
2023-03-06T01:45:02.891Z,84.99
2023-03-06T01:48:07.090Z,84.57
2023-03-06T01:51:11.438Z,85.16
2023-03-06T01:54:19.615Z,85.12
2023-03-06T01:57:28.945Z,85.53
2023-03-06T02:00:33.922Z,85.16
2023-03-06T02:03:40.342Z,85.13
2023-03-06T02:06:44.513Z,85.08
2023-03-06T02:09:48.348Z,85.90
2023-03-06T02:12:53.457Z,85.80
2023-03-06T02:15:58.651Z,85.38
2023-03-06T02:19:04.100Z,85.62
2023-03-06T02:22:08.015Z,86.09
2023-03-06T02:25:24.444Z,86.02
2023-03-06T02:28:28.529Z,85.49
2023-03-06T02:31:35.955Z,85.79
2023-03-06T02:34:58.230Z,86.16
2023-03-06T02:38:06.416Z,86.17
2023-03-06T02:41:11.778Z,85.68
2023-03-06T02:44:15.572Z,85.78
2023-03-06T02:47:19.918Z,85.31
2023-03-06T02:50:23.605Z,85.69
2023-03-06T02:53:27.158Z,85.49
2023-03-06T02:56:32.181Z,85.63
2023-03-06T02:59:35.992Z,85.60
2023-03-06T03:02:42.766Z,85.83
2023-03-06T03:05:46.387Z,85.57
2023-03-06T03:09:04.488Z,85.69
2023-03-06T03:12:10.850Z,85.92
2023-03-06T03:15:15.564Z,85.65
2023-03-06T03:18:20.004Z,85.50
2023-03-06T03:21:24.560Z,85.89
2023-03-06T03:24:30.526Z,86.18
2023-03-06T03:27:35.468Z,85.99
2023-03-06T03:30:40.342Z,85.72
2023-03-06T03:33:45.067Z,86.02
2023-03-06T03:36:49.466Z,85.58
2023-03-06T03:39:53.682Z,85.49
2023-03-06T03:42:58.939Z,85.08
2023-03-06T03:46:02.624Z,84.85
2023-03-06T03:49:06.894Z,84.93
2023-03-06T03:55:15.808Z,84.19
2023-03-06T03:58:21.129Z,83.57
2023-03-06T04:01:26.244Z,83.62
2023-03-06T04:04:30.380Z,83.01
2023-03-06T04:07:34.029Z,83.32
2023-03-06T04:10:39.487Z,83.42
2023-03-06T04:13:46.427Z,83.14
2023-03-06T04:16:50.478Z,83.16
2023-03-06T04:19:54.109Z,83.56
2023-03-06T04:22:59.768Z,83.39
2023-03-06T04:26:03.783Z,83.94
2023-03-06T04:29:08.928Z,83.44
2023-03-06T04:32:12.492Z,83.74
2023-03-06T04:35:16.653Z,83.56
2023-03-06T04:38:29.006Z,83.55
2023-03-06T04:41:32.954Z,83.31
2023-03-06T04:44:38.050Z,83.43
2023-03-06T04:47:41.838Z,83.25
2023-03-06T04:50:45.442Z,83.11
2023-03-06T04:53:49.034Z,82.98
2023-03-06T04:56:52.500Z,82.85
2023-03-06T04:59:58.021Z,83.38
2023-03-06T05:03:03.046Z,83.18
2023-03-06T05:06:07.442Z,83.06
2023-03-06T05:09:11.033Z,83.26
2023-03-06T05:12:14.724Z,83.37
2023-03-06T05:15:23.422Z,83.53
2023-03-06T05:18:27.476Z,82.88
2023-03-06T05:21:31.617Z,82.33
2023-03-06T05:24:35.013Z,82.67
2023-03-06T05:27:39.063Z,82.97
2023-03-06T05:30:43.969Z,82.65
2023-03-06T05:33:47.703Z,82.88
2023-03-06T05:36:51.438Z,83.12
2023-03-06T05:39:55.609Z,83.24
2023-03-06T05:42:59.213Z,83.24
2023-03-06T05:46:06.234Z,83.51
2023-03-06T05:49:10.145Z,83.85
2023-03-06T05:52:17.560Z,84.81
2023-03-06T05:55:22.264Z,84.37
2023-03-06T05:58:25.664Z,84.50
2023-03-06T06:01:30.528Z,84.44
2023-03-06T06:04:34.125Z,84.28
2023-03-06T06:07:38.235Z,84.50
2023-03-06T06:10:41.704Z,83.92
2023-03-06T06:13:45.606Z,84.51
2023-03-06T06:16:50.814Z,84.46
2023-03-06T06:19:54.920Z,84.33
2023-03-06T06:22:58.511Z,84.69
2023-03-06T06:26:03.146Z,85.28
2023-03-06T06:29:06.827Z,85.45
2023-03-06T06:32:11.857Z,85.33
2023-03-06T06:35:15.622Z,85.49
2023-03-06T06:38:19.394Z,85.49
2023-03-06T06:44:46.541Z,85.06
2023-03-06T06:47:52.368Z,85.51
2023-03-06T06:50:59.032Z,85.32
2023-03-06T06:54:03.136Z,85.14
2023-03-06T06:57:06.591Z,85.14
2023-03-06T07:00:14.008Z,85.05
2023-03-06T07:03:19.070Z,85.15
2023-03-06T07:06:23.126Z,85.01
2023-03-06T07:09:27.114Z,84.62
2023-03-06T07:12:33.019Z,84.65
2023-03-06T07:15:36.538Z,84.70
2023-03-06T07:18:41.995Z,84.34
2023-03-06T07:21:45.639Z,84.25
2023-03-06T07:24:49.129Z,84.37
2023-03-06T07:27:54.432Z,84.05
2023-03-06T07:30:58.190Z,83.60
2023-03-06T07:34:05.005Z,83.41
2023-03-06T07:37:08.690Z,83.03
2023-03-06T07:40:13.541Z,83.07
2023-03-06T07:43:19.650Z,82.78
2023-03-06T07:46:31.050Z,82.15
2023-03-06T07:49:36.493Z,82.54
2023-03-06T07:52:40.043Z,82.32
2023-03-06T07:55:43.615Z,82.48
2023-03-06T07:58:48.752Z,81.95
2023-03-06T08:01:52.631Z,81.78
2023-03-06T08:04:57.703Z,81.12
2023-03-06T08:08:01.336Z,80.96
2023-03-06T08:11:05.075Z,80.47
2023-03-06T08:14:08.460Z,80.08
2023-03-06T08:17:12.096Z,79.17
2023-03-06T08:20:17.576Z,78.68
2023-03-06T08:23:21.309Z,78.82
2023-03-06T08:26:27.268Z,78.03
2023-03-06T08:29:32.309Z,77.47
2023-03-06T08:32:37.345Z,77.64
2023-03-06T08:35:42.610Z,77.31
2023-03-06T08:38:46.116Z,77.06
2023-03-06T08:41:49.487Z,76.29
2023-03-06T08:44:52.984Z,76.77
2023-03-06T08:47:56.459Z,76.33
2023-03-06T08:51:01.540Z,75.79
2023-03-06T08:54:05.493Z,76.30
2023-03-06T08:57:09.561Z,75.39
2023-03-06T09:00:14.356Z,75.53
2023-03-06T09:03:17.955Z,75.18
2023-03-06T09:06:22.922Z,75.62
2023-03-06T09:09:26.421Z,75.29
2023-03-06T09:12:32.642Z,75.14
2023-03-06T09:15:40.738Z,74.90
2023-03-06T09:18:44.161Z,74.56
2023-03-06T09:21:49.270Z,73.99
2023-03-06T09:24:53.047Z,73.97
2023-03-06T09:28:10.555Z,73.84
2023-03-06T09:31:18.401Z,74.15
2023-03-06T09:34:22.240Z,74.19
2023-03-06T09:37:27.236Z,73.42
2023-03-06T09:40:40.579Z,74.08
2023-03-06T09:43:47.030Z,73.77
2023-03-06T09:47:22.460Z,73.34
2023-03-06T09:50:31.940Z,73.10
2023-03-06T09:53:51.368Z,72.52
2023-03-06T09:56:54.781Z,72.21
2023-03-06T10:00:04.330Z,72.20
2023-03-06T10:03:19.100Z,72.79
2023-03-06T10:06:28.073Z,71.68
2023-03-06T10:09:42.043Z,70.92
2023-03-06T10:12:53.404Z,70.84
2023-03-06T10:16:08.148Z,70.76
2023-03-06T10:19:15.998Z,71.36
2023-03-06T10:22:27.526Z,69.73
2023-03-06T10:25:38.669Z,69.53
2023-03-06T10:28:48.383Z,68.78
2023-03-06T10:32:03.515Z,68.60
2023-03-06T10:35:17.287Z,69.22
2023-03-06T10:38:24.493Z,67.72
2023-03-06T10:41:31.188Z,67.16
2023-03-06T10:44:34.728Z,65.71
2023-03-06T10:47:40.412Z,66.49
2023-03-06T10:50:43.841Z,65.50
2023-03-06T10:53:53.654Z,64.93
2023-03-06T10:56:58.849Z,65.17
2023-03-06T11:00:05.707Z,65.61
2023-03-06T11:03:22.282Z,64.81
2023-03-06T11:06:35.773Z,64.61
2023-03-06T11:09:41.852Z,63.53
2023-03-06T11:12:59.420Z,63.08
2023-03-06T11:16:06.700Z,62.20
2023-03-06T11:19:24.194Z,62.18
2023-03-06T11:22:34.883Z,61.85
2023-03-06T11:25:41.836Z,62.10
2023-03-06T11:28:51.466Z,60.77
2023-03-06T11:31:59.702Z,59.45
2023-03-06T11:35:07.440Z,58.05
2023-03-06T11:38:18.297Z,57.92
2023-03-06T11:41:31.899Z,59.52
2023-03-06T11:44:48.170Z,59.19
2023-03-06T11:47:59.030Z,59.61
2023-03-06T11:51:08.608Z,58.10
2023-03-06T11:54:14.381Z,59.30
2023-03-06T11:57:22.434Z,58.44
2023-03-06T12:00:42.525Z,57.65
2023-03-06T12:04:03.847Z,57.16
2023-03-06T12:07:21.863Z,56.84
2023-03-06T12:10:31.132Z,56.94
2023-03-06T12:14:00.275Z,55.79
2023-03-06T12:17:20.257Z,54.08
2023-03-06T12:20:45.120Z,56.04
2023-03-06T12:24:09.524Z,55.87
2023-03-06T12:27:21.360Z,57.94
2023-03-06T12:31:03.498Z,57.12
2023-03-06T12:34:21.740Z,57.45
2023-03-06T12:37:38.113Z,57.30
2023-03-06T12:40:55.029Z,57.35
2023-03-06T12:44:37.063Z,55.23
2023-03-06T12:47:45.724Z,55.50
2023-03-06T12:50:55.047Z,55.11
2023-03-06T12:54:01.499Z,54.89
2023-03-06T12:57:09.232Z,52.39
2023-03-06T13:00:55.284Z,52.94
2023-03-06T13:04:22.974Z,54.75
2023-03-06T13:07:41.388Z,53.42
2023-03-06T13:10:49.583Z,53.04
2023-03-06T13:13:53.210Z,55.38
2023-03-06T13:17:16.848Z,54.36
2023-03-06T13:20:36.478Z,54.15
2023-03-06T13:23:52.741Z,53.84
2023-03-06T13:26:58.946Z,54.40
2023-03-06T13:30:25.762Z,55.91
2023-03-06T13:33:56.007Z,54.54
2023-03-06T13:37:32.527Z,54.88
2023-03-06T13:40:37.821Z,55.46
2023-03-06T13:43:45.414Z,55.43
2023-03-06T13:46:58.803Z,54.66
2023-03-06T13:50:15.176Z,54.61
2023-03-06T13:53:46.794Z,56.35
2023-03-06T13:57:28.448Z,56.83
2023-03-06T14:01:16.984Z,57.29
2023-03-06T14:04:45.859Z,57.27
2023-03-06T14:08:03.110Z,63.31
2023-03-06T14:11:18.692Z,65.10
2023-03-06T14:14:33.329Z,66.27
2023-03-06T14:17:40.339Z,66.45
2023-03-06T14:20:47.583Z,66.22
2023-03-06T14:24:00.719Z,67.29
2023-03-06T14:27:04.548Z,67.71
2023-03-06T14:30:09.983Z,69.04
2023-03-06T14:33:14.259Z,70.60
2023-03-06T14:36:21.578Z,71.31
2023-03-06T14:39:31.238Z,73.02
2023-03-06T14:42:35.269Z,73.78
2023-03-06T14:45:39.328Z,74.38
2023-03-06T14:48:44.601Z,74.79
2023-03-06T14:51:53.925Z,74.69
2023-03-06T14:54:58.371Z,74.35
2023-03-06T14:58:06.792Z,74.73
2023-03-06T15:01:13.344Z,76.11
2023-03-06T15:04:26.692Z,75.50
2023-03-06T15:07:34.067Z,74.95
2023-03-06T15:10:38.847Z,74.74
2023-03-06T15:13:42.325Z,76.58
2023-03-06T15:16:45.963Z,78.36
2023-03-06T15:19:54.742Z,80.19
2023-03-06T15:23:00.288Z,80.75
2023-03-06T15:26:16.468Z,80.17
2023-03-06T15:29:23.872Z,79.14
2023-03-06T15:32:34.759Z,78.13
2023-03-06T15:35:39.344Z,77.82
2023-03-06T15:38:46.223Z,77.70
2023-03-06T15:41:49.701Z,76.77
2023-03-06T15:44:55.232Z,75.79
2023-03-06T15:47:58.815Z,75.02
2023-03-06T15:51:03.413Z,74.16
2023-03-06T15:54:12.290Z,74.38
2023-03-06T15:57:22.291Z,74.36
2023-03-06T16:00:28.766Z,73.38
2023-03-06T16:03:32.553Z,73.16
2023-03-06T16:06:36.038Z,73.19
2023-03-06T16:09:41.356Z,72.05
2023-03-06T16:12:48.756Z,72.62
2023-03-06T16:15:52.491Z,71.89
2023-03-06T16:18:55.994Z,72.03
2023-03-06T16:21:59.916Z,71.66
2023-03-06T16:25:05.243Z,70.98
2023-03-06T16:28:14.283Z,70.74
2023-03-06T16:31:17.816Z,70.45
2023-03-06T16:34:21.402Z,71.19
2023-03-06T16:37:25.443Z,75.03
2023-03-06T16:40:32.921Z,76.09
2023-03-06T16:43:37.066Z,76.83
2023-03-06T16:46:45.458Z,77.18
2023-03-06T16:49:48.860Z,77.65
2023-03-06T16:52:54.022Z,76.63
2023-03-06T16:55:58.949Z,77.60
2023-03-06T16:59:02.445Z,77.16
2023-03-06T17:02:06.065Z,77.86
2023-03-06T17:05:11.849Z,77.09
2023-03-06T17:08:15.278Z,77.56
2023-03-06T17:11:21.674Z,77.52
2023-03-06T17:14:25.168Z,77.32
2023-03-06T17:17:28.662Z,77.01
2023-03-06T17:20:32.333Z,77.02
2023-03-06T17:23:36.186Z,76.59
2023-03-06T17:26:41.312Z,76.61
2023-03-06T17:29:44.963Z,76.35
2023-03-06T17:32:48.374Z,76.16
2023-03-06T17:35:51.826Z,76.19
2023-03-06T17:38:57.080Z,75.92
2023-03-06T17:42:03.352Z,75.54
2023-03-06T17:45:09.428Z,76.73
2023-03-06T17:48:13.721Z,76.86
2023-03-06T17:51:17.913Z,76.62
2023-03-06T17:54:22.081Z,76.57
2023-03-06T17:57:27.050Z,77.26
2023-03-06T18:00:30.681Z,77.31
2023-03-06T18:03:36.303Z,77.57
2023-03-06T18:06:40.930Z,77.61
2023-03-06T18:09:44.503Z,77.75
2023-03-06T18:12:49.426Z,78.29
2023-03-06T18:15:52.988Z,78.60
2023-03-06T18:18:57.764Z,78.65
2023-03-06T18:22:01.647Z,77.43
2023-03-06T18:25:05.763Z,76.69
2023-03-06T18:28:10.739Z,76.18
2023-03-06T18:31:17.454Z,75.52
2023-03-06T18:34:21.300Z,74.63
2023-03-06T18:37:25.108Z,74.02
2023-03-06T18:40:29.024Z,74.39
2023-03-06T18:43:35.030Z,74.34
2023-03-06T18:46:40.166Z,74.23
2023-03-06T18:49:46.282Z,73.86
2023-03-06T18:52:50.121Z,74.38
2023-03-06T18:55:55.212Z,73.96
2023-03-06T18:59:02.986Z,73.96
2023-03-06T19:02:06.811Z,74.31
2023-03-06T19:05:10.926Z,73.86
2023-03-06T19:08:15.897Z,74.06
2023-03-06T19:11:19.499Z,73.98
2023-03-06T19:14:24.744Z,74.42
2023-03-06T19:17:31.637Z,73.92
2023-03-06T19:20:35.485Z,74.27
2023-03-06T19:23:39.998Z,74.13
2023-03-06T19:26:43.556Z,74.24
2023-03-06T19:29:48.532Z,74.29
2023-03-06T19:32:51.950Z,73.98
2023-03-06T19:35:55.490Z,74.53
2023-03-06T19:39:00.806Z,74.79
2023-03-06T19:42:05.044Z,74.44
2023-03-06T19:45:10.926Z,75.06
2023-03-06T19:48:15.626Z,75.14
2023-03-06T19:51:19.106Z,75.00
2023-03-06T19:54:24.854Z,75.17
2023-03-06T19:57:29.922Z,75.12
2023-03-06T20:00:34.888Z,75.13
2023-03-06T20:03:39.002Z,75.18
2023-03-06T20:06:45.453Z,75.41
2023-03-06T20:09:49.139Z,75.50
2023-03-06T20:12:55.008Z,75.30
2023-03-06T20:16:03.962Z,75.70
2023-03-06T20:19:08.783Z,75.89
2023-03-06T20:22:12.882Z,76.31
2023-03-06T20:25:16.461Z,76.63
2023-03-06T20:28:20.688Z,76.54
2023-03-06T20:31:30.484Z,76.82
2023-03-06T20:34:34.174Z,76.53
2023-03-06T20:37:37.808Z,76.40
2023-03-06T20:40:43.885Z,76.76
2023-03-06T20:43:47.600Z,76.74
2023-03-06T20:46:53.168Z,77.17
2023-03-06T20:49:56.745Z,76.99
2023-03-06T20:53:00.514Z,76.90
2023-03-06T20:56:04.001Z,76.92
2023-03-06T20:59:17.767Z,76.95
2023-03-06T21:02:23.038Z,76.94
2023-03-06T21:05:26.658Z,77.19
2023-03-06T21:08:30.240Z,77.14
2023-03-06T21:11:35.342Z,77.23
2023-03-06T21:14:38.826Z,77.26
2023-03-06T21:17:43.814Z,77.46
2023-03-06T21:20:47.245Z,77.61
2023-03-06T21:23:51.355Z,77.33
2023-03-06T21:26:54.768Z,77.46
2023-03-06T21:29:58.204Z,77.38
2023-03-06T21:33:03.993Z,77.25
2023-03-06T21:36:08.500Z,77.29
2023-03-06T21:39:12.429Z,77.18
2023-03-06T21:42:15.894Z,77.46
2023-03-06T21:45:20.617Z,77.07
2023-03-06T21:48:25.649Z,76.79
2023-03-06T21:51:29.252Z,77.40
2023-03-06T21:54:32.795Z,76.76
2023-03-06T21:57:36.352Z,77.10
2023-03-06T22:00:41.020Z,76.83
2023-03-06T22:03:46.354Z,77.11
2023-03-06T22:06:49.829Z,77.44
2023-03-06T22:09:54.418Z,77.16
2023-03-06T22:12:57.992Z,76.69
2023-03-06T22:16:01.524Z,76.64
2023-03-06T22:19:07.555Z,76.45
2023-03-06T22:22:13.350Z,76.81
2023-03-06T22:25:17.363Z,76.82
2023-03-06T22:28:20.875Z,76.33
2023-03-06T22:31:26.453Z,76.46
2023-03-06T22:34:31.427Z,76.70
2023-03-06T22:37:34.833Z,77.05
2023-03-06T22:40:38.347Z,76.90
2023-03-06T22:43:42.938Z,76.96
2023-03-06T22:46:47.437Z,76.78
2023-03-06T22:49:52.885Z,77.21
2023-03-06T22:52:56.676Z,77.24
2023-03-06T22:56:00.853Z,77.22
2023-03-06T22:59:05.112Z,77.01
2023-03-06T23:02:09.254Z,76.72
2023-03-06T23:05:14.195Z,76.66
2023-03-06T23:08:18.412Z,77.31
2023-03-06T23:11:23.702Z,77.40
2023-03-06T23:14:49.604Z,77.71
2023-03-06T23:18:11.760Z,77.56
2023-03-06T23:21:35.747Z,77.79
2023-03-06T23:24:58.797Z,77.77
2023-03-06T23:28:03.283Z,77.84
2023-03-06T23:31:10.834Z,77.77
2023-03-06T23:34:15.079Z,78.17
2023-03-06T23:37:20.550Z,77.61
2023-03-06T23:40:24.381Z,78.01
2023-03-06T23:43:29.528Z,78.28
2023-03-06T23:46:34.026Z,78.08
2023-03-06T23:49:38.210Z,78.26
2023-03-06T23:52:43.582Z,78.16
2023-03-06T23:55:48.555Z,78.05
2023-03-06T23:58:52.034Z,78.77
